Time;durP1;ratioP1;P1;durP2;ratioP2;P2;SDS_P1;SDS_P2;PMS_P1;PMS_P2;Temp;Humidity;BMP_temperature;BMP_pressure;BME280_temperature;BME280_humidity;BME280_pressure;Samples;Min_cycle;Max_cycle;Signal;HPM_P1;HPM_P2
2023/09/13 00:00:06;;;;;;;765.97;680.15;;;;;;;;;;5053066;28;20108;-71
2023/09/13 00:02:40;;;;;;;769.47;684.63;;;;;;;;;;5039119;28;20106;-69
2023/09/13 00:05:08;;;;;;;767.72;684.67;;;;;;;;;;5033447;28;20046;-69
2023/09/13 00:07:35;;;;;;;764.80;681.50;;;;;;;;;;5016767;28;20041;-66
2023/09/13 00:10:02;;;;;;;763.92;681.67;;;;;;;;;;5016968;28;20068;-67
2023/09/13 00:12:29;;;;;;;759.20;676.25;;;;;;;;;;5034112;28;20050;-67
2023/09/13 00:14:55;;;;;;;749.67;667.63;;;;;;;;;;5030500;28;20057;-66
2023/09/13 00:17:22;;;;;;;756.80;674.40;;;;;;;;;;5033341;28;20049;-69
2023/09/13 00:19:49;;;;;;;764.55;682.22;;;;;;;;;;5016637;28;20045;-67
2023/09/13 00:22:15;;;;;;;750.42;669.15;;;;;;;;;;5028170;28;20069;-67
2023/09/13 00:24:42;;;;;;;746.55;664.75;;;;;;;;;;5030394;28;20116;-70
2023/09/13 00:27:09;;;;;;;753.47;671.63;;;;;;;;;;5031419;28;20045;-66
2023/09/13 00:29:35;;;;;;;741.65;658.88;;;;;;;;;;5014380;28;20068;-65
2023/09/13 00:32:02;;;;;;;754.63;672.25;;;;;;;;;;5029432;28;20406;-67
2023/09/13 00:34:30;;;;;;;759.05;677.33;;;;;;;;;;5011838;28;20045;-67
2023/09/13 00:36:57;;;;;;;747.97;665.97;;;;;;;;;;4992819;28;20394;-66
2023/09/13 00:39:24;;;;;;;737.30;656.33;;;;;;;;;;5030687;28;20124;-68
2023/09/13 00:41:51;;;;;;;781.33;676.95;;;;;;;;;;5028361;28;20056;-66
2023/09/13 00:44:17;;;;;;;744.60;663.13;;;;;;;;;;5015065;28;20033;-70
2023/09/13 00:46:44;;;;;;;743.47;661.90;;;;;;;;;;5029871;28;20065;-70
2023/09/13 00:49:11;;;;;;;745.42;662.88;;;;;;;;;;5022632;28;20046;-69
2023/09/13 00:51:38;;;;;;;738.55;649.30;;;;;;;;;;5029547;28;20124;-68
2023/09/13 00:54:05;;;;;;;748.30;655.08;;;;;;;;;;5029182;28;20088;-67
2023/09/13 00:56:32;;;;;;;736.65;638.90;;;;;;;;;;5010811;28;20053;-66
2023/09/13 00:58:59;;;;;;;739.78;656.83;;;;;;;;;;5028718;28;20087;-70
2023/09/13 01:01:27;;;;;;;730.13;647.05;;;;;;;;;;5026189;28;20049;-66
2023/09/13 01:03:57;;;;;;;746.40;664.33;;;;;;;;;;5038173;28;20049;-67
2023/09/13 01:06:23;;;;;;;740.53;658.97;;;;;;;;;;5033051;28;20057;-69
2023/09/13 01:08:50;;;;;;;776.28;657.67;;;;;;;;;;5031846;28;20449;-68
2023/09/13 01:11:17;;;;;;;738.10;656.25;;;;;;;;;;5032290;28;20048;-68
2023/09/13 01:13:44;;;;;;;744.67;661.80;;;;;;;;;;5016730;28;20451;-69
2023/09/13 01:16:21;;;;;;;754.85;658.83;;;;;;;;;;5049082;28;20041;-67
2023/09/13 01:19:11;;;;;;;740.45;646.72;;;;;;;;;;5031360;28;20052;-68
2023/09/13 01:21:41;;;;;;;737.45;655.88;;;;;;;;;;5039526;28;20047;-69
2023/09/13 01:24:18;;;;;;;727.03;641.38;;;;;;;;;;5032263;28;20639;-68
2023/09/13 01:26:51;;;;;;;757.17;649.58;;;;;;;;;;5032166;28;20049;-65
2023/09/13 01:29:19;;;;;;;729.15;644.30;;;;;;;;;;5049986;28;20154;-69
2023/09/13 01:31:47;;;;;;;729.22;642.13;;;;;;;;;;5031987;28;20479;-69
2023/09/13 01:34:14;;;;;;;739.33;651.70;;;;;;;;;;5016256;28;20040;-65
2023/09/13 01:36:41;;;;;;;743.45;647.55;;;;;;;;;;5045982;28;20037;-71
2023/09/13 01:39:08;;;;;;;756.00;662.38;;;;;;;;;;5029893;28;20045;-69
2023/09/13 01:41:44;;;;;;;744.03;652.78;;;;;;;;;;5050172;28;20045;-67
2023/09/13 01:44:12;;;;;;;748.63;655.13;;;;;;;;;;5033200;28;20119;-67
2023/09/13 01:46:41;;;;;;;749.85;665.97;;;;;;;;;;5031661;28;20447;-66
2023/09/13 01:49:09;;;;;;;747.17;654.42;;;;;;;;;;5043102;28;20049;-70
2023/09/13 01:51:36;;;;;;;735.17;652.08;;;;;;;;;;5041325;28;20080;-66
2023/09/13 01:54:03;;;;;;;744.45;646.55;;;;;;;;;;5031568;28;20077;-66
2023/09/13 01:56:30;;;;;;;746.53;662.25;;;;;;;;;;5031913;28;20060;-71
2023/09/13 01:58:56;;;;;;;743.53;657.90;;;;;;;;;;5032770;28;20040;-72
2023/09/13 02:04:31;;;;;;;755.22;648.85;;;;;;;;;;4308503;26;20406;-65
2023/09/13 02:06:59;;;;;;;745.30;662.10;;;;;;;;;;5036335;28;20056;-66
2023/09/13 02:09:26;;;;;;;752.83;662.80;;;;;;;;;;5031888;28;20483;-65
2023/09/13 02:11:52;;;;;;;773.67;656.92;;;;;;;;;;5033840;28;20048;-65
2023/09/13 02:14:19;;;;;;;741.75;649.72;;;;;;;;;;5035913;28;20045;-64
2023/09/13 02:16:46;;;;;;;742.85;660.88;;;;;;;;;;5035639;28;20091;-65
2023/09/13 02:19:13;;;;;;;753.05;654.03;;;;;;;;;;5033235;28;20055;-65
2023/09/13 02:21:40;;;;;;;752.88;654.90;;;;;;;;;;5050404;28;20044;-65
2023/09/13 02:24:07;;;;;;;751.47;652.47;;;;;;;;;;5049577;28;20041;-66
2023/09/13 02:26:34;;;;;;;771.90;669.38;;;;;;;;;;5036053;28;20060;-68
2023/09/13 02:29:01;;;;;;;759.58;658.78;;;;;;;;;;5052208;28;20041;-65
2023/09/13 02:31:29;;;;;;;744.35;657.80;;;;;;;;;;5049748;28;20064;-65
2023/09/13 02:33:56;;;;;;;761.60;662.60;;;;;;;;;;5034751;28;20548;-65
2023/09/13 02:36:23;;;;;;;767.47;663.38;;;;;;;;;;5035506;28;20131;-65
2023/09/13 02:38:50;;;;;;;803.72;670.50;;;;;;;;;;5051225;28;20048;-67
2023/09/13 02:41:17;;;;;;;751.40;662.63;;;;;;;;;;5032399;28;20045;-65
2023/09/13 02:43:43;;;;;;;765.88;659.85;;;;;;;;;;5050055;28;20075;-66
2023/09/13 02:46:11;;;;;;;748.67;654.67;;;;;;;;;;5035455;28;20530;-67
2023/09/13 02:48:39;;;;;;;758.42;652.92;;;;;;;;;;5035518;28;20041;-66
2023/09/13 02:51:10;;;;;;;746.40;642.30;;;;;;;;;;5050748;28;20053;-66
2023/09/13 02:53:37;;;;;;;776.20;656.00;;;;;;;;;;5035170;28;20052;-67
2023/09/13 02:56:05;;;;;;;772.10;655.80;;;;;;;;;;5036097;28;20049;-66
2023/09/13 02:58:32;;;;;;;813.40;644.30;;;;;;;;;;5035020;28;20045;-67
2023/09/13 03:01:03;;;;;;;769.10;641.95;;;;;;;;;;5035363;28;20044;-64
2023/09/13 03:03:31;;;;;;;748.00;650.13;;;;;;;;;;5034945;28;20516;-65
2023/09/13 03:06:10;;;;;;;764.72;654.00;;;;;;;;;;5031899;28;20576;-68
2023/09/13 03:08:37;;;;;;;763.10;646.78;;;;;;;;;;5016901;28;20118;-69
2023/09/13 03:11:17;;;;;;;759.22;632.75;;;;;;;;;;5051749;28;20049;-65
2023/09/13 03:13:44;;;;;;;743.92;629.85;;;;;;;;;;5028898;28;20045;-64
2023/09/13 03:16:12;;;;;;;757.72;640.08;;;;;;;;;;5035041;28;20049;-64
2023/09/13 03:18:39;;;;;;;752.72;640.67;;;;;;;;;;5034615;28;20045;-64
2023/09/13 03:21:10;;;;;;;755.17;646.35;;;;;;;;;;5032847;28;20486;-64
2023/09/13 03:23:39;;;;;;;767.38;642.20;;;;;;;;;;5015373;28;20475;-67
2023/09/13 03:26:15;;;;;;;764.00;637.13;;;;;;;;;;5049680;28;20096;-64
2023/09/13 03:28:44;;;;;;;751.67;631.17;;;;;;;;;;5041732;28;20487;-64
2023/09/13 03:31:12;;;;;;;757.90;641.85;;;;;;;;;;5039314;28;20397;-64
2023/09/13 03:33:39;;;;;;;758.28;637.88;;;;;;;;;;5043447;28;20071;-65
2023/09/13 03:36:08;;;;;;;760.25;637.55;;;;;;;;;;5034305;28;20049;-64
2023/09/13 03:38:37;;;;;;;750.88;651.42;;;;;;;;;;5034868;28;20119;-66
2023/09/13 03:41:05;;;;;;;777.10;648.70;;;;;;;;;;5047134;28;20415;-64
2023/09/13 03:43:32;;;;;;;759.65;641.72;;;;;;;;;;5031657;28;20079;-64
2023/09/13 03:45:59;;;;;;;779.90;643.28;;;;;;;;;;5034252;28;20051;-65
2023/09/13 03:48:26;;;;;;;754.78;631.67;;;;;;;;;;5040454;28;20049;-66
2023/09/13 03:50:52;;;;;;;866.33;622.58;;;;;;;;;;5032134;28;20049;-65
2023/09/13 03:53:19;;;;;;;783.65;633.88;;;;;;;;;;5052745;28;20063;-64
2023/09/13 03:55:46;;;;;;;779.33;624.58;;;;;;;;;;5040116;28;20068;-66
2023/09/13 03:58:13;;;;;;;766.50;633.65;;;;;;;;;;5034000;28;20127;-64
2023/09/13 04:00:39;;;;;;;788.22;641.83;;;;;;;;;;5048657;28;20041;-65
2023/09/13 04:03:06;;;;;;;777.42;630.78;;;;;;;;;;5031525;28;20045;-65
2023/09/13 04:05:33;;;;;;;766.28;621.83;;;;;;;;;;5035402;28;20128;-65
2023/09/13 04:08:00;;;;;;;879.83;633.85;;;;;;;;;;5030900;28;20477;-64
2023/09/13 04:10:26;;;;;;;766.08;638.72;;;;;;;;;;5030468;28;20036;-65
2023/09/13 04:12:53;;;;;;;770.88;632.33;;;;;;;;;;5033927;28;20098;-65
2023/09/13 04:15:20;;;;;;;761.88;629.00;;;;;;;;;;5048532;28;20417;-65
2023/09/13 04:17:47;;;;;;;788.83;645.45;;;;;;;;;;5031559;28;20410;-65
2023/09/13 04:20:13;;;;;;;744.95;648.05;;;;;;;;;;5034607;28;20044;-64
2023/09/13 04:22:40;;;;;;;760.92;643.35;;;;;;;;;;5033073;28;20041;-65
2023/09/13 04:25:07;;;;;;;778.03;644.83;;;;;;;;;;5048007;28;20064;-65
2023/09/13 04:27:34;;;;;;;769.22;634.55;;;;;;;;;;5030838;28;20421;-65
2023/09/13 04:30:00;;;;;;;780.28;647.10;;;;;;;;;;5030947;28;20069;-64
2023/09/13 04:32:27;;;;;;;763.20;639.03;;;;;;;;;;5033905;28;20069;-65
2023/09/13 04:34:55;;;;;;;760.15;642.75;;;;;;;;;;5048758;28;20045;-65
2023/09/13 04:37:21;;;;;;;752.15;649.85;;;;;;;;;;5033226;28;20445;-64
2023/09/13 04:39:48;;;;;;;738.33;652.22;;;;;;;;;;5025815;28;20525;-65
2023/09/13 04:42:17;;;;;;;761.78;654.55;;;;;;;;;;5033302;28;20091;-64
2023/09/13 04:44:44;;;;;;;815.20;646.13;;;;;;;;;;5032478;28;20128;-66
2023/09/13 04:47:11;;;;;;;739.22;647.03;;;;;;;;;;5033515;28;20045;-66
2023/09/13 04:49:37;;;;;;;739.55;645.03;;;;;;;;;;5033014;28;20044;-66
2023/09/13 04:52:06;;;;;;;760.53;648.10;;;;;;;;;;5040955;28;20068;-65
2023/09/13 04:54:33;;;;;;;761.10;649.17;;;;;;;;;;5033047;28;20434;-66
2023/09/13 04:57:00;;;;;;;777.88;662.13;;;;;;;;;;5029972;28;20116;-66
2023/09/13 04:59:40;;;;;;;750.33;650.28;;;;;;;;;;5050929;28;20144;-66
2023/09/13 05:02:07;;;;;;;765.30;664.78;;;;;;;;;;5049286;28;20257;-68
2023/09/13 05:04:33;;;;;;;758.67;664.88;;;;;;;;;;5032653;28;20045;-65
2023/09/13 05:07:00;;;;;;;757.50;672.85;;;;;;;;;;5043908;28;20049;-66
2023/09/13 05:09:27;;;;;;;800.03;680.55;;;;;;;;;;5030093;28;20083;-66
2023/09/13 05:11:53;;;;;;;808.03;697.22;;;;;;;;;;5022034;28;20458;-66
2023/09/13 05:14:20;;;;;;;778.47;694.45;;;;;;;;;;5050471;28;20102;-67
2023/09/13 05:16:46;;;;;;;784.33;699.72;;;;;;;;;;5049113;28;20037;-66
2023/09/13 05:19:13;;;;;;;787.13;701.50;;;;;;;;;;5047740;28;20444;-67
2023/09/13 05:21:40;;;;;;;786.70;700.72;;;;;;;;;;5050182;28;20048;-67
2023/09/13 05:24:06;;;;;;;789.00;702.72;;;;;;;;;;5048453;28;20037;-67
2023/09/13 05:26:33;;;;;;;793.83;702.17;;;;;;;;;;5049540;28;20095;-66
2023/09/13 05:29:01;;;;;;;797.20;709.22;;;;;;;;;;5047527;28;20084;-67
2023/09/13 05:31:28;;;;;;;802.80;714.33;;;;;;;;;;5046102;28;20508;-66
2023/09/13 05:33:55;;;;;;;816.35;726.35;;;;;;;;;;5045129;28;20482;-66
2023/09/13 05:36:21;;;;;;;799.72;714.33;;;;;;;;;;5044609;28;20037;-66
2023/09/13 05:38:49;;;;;;;832.08;734.33;;;;;;;;;;5031394;28;20048;-66
2023/09/13 05:41:16;;;;;;;828.17;741.83;;;;;;;;;;5048788;28;20057;-64
2023/09/13 05:43:42;;;;;;;821.97;737.55;;;;;;;;;;5047792;28;20064;-64
2023/09/13 05:46:09;;;;;;;848.08;759.45;;;;;;;;;;5028907;28;20069;-65
2023/09/13 05:48:37;;;;;;;837.00;749.50;;;;;;;;;;5045884;28;20040;-64
2023/09/13 05:51:04;;;;;;;850.83;762.88;;;;;;;;;;5029708;28;20054;-64
2023/09/13 05:53:31;;;;;;;852.15;764.28;;;;;;;;;;5051316;28;20044;-65
2023/09/13 05:55:57;;;;;;;867.72;778.83;;;;;;;;;;5046301;28;20398;-65
2023/09/13 05:58:24;;;;;;;887.10;797.30;;;;;;;;;;5045785;28;21273;-66
2023/09/13 06:00:51;;;;;;;868.13;780.42;;;;;;;;;;5047116;28;20041;-66
2023/09/13 06:03:18;;;;;;;877.85;787.92;;;;;;;;;;5030174;28;20056;-65
2023/09/13 06:05:50;;;;;;;902.65;811.10;;;;;;;;;;5029253;28;20037;-65
2023/09/13 06:08:17;;;;;;;888.10;800.55;;;;;;;;;;5021885;28;20046;-65
2023/09/13 06:10:47;;;;;;;929.65;809.58;;;;;;;;;;5040485;28;20048;-63
2023/09/13 06:13:15;;;;;;;908.35;814.28;;;;;;;;;;5032358;28;20041;-64
2023/09/13 06:15:41;;;;;;;932.78;824.25;;;;;;;;;;5046951;28;20049;-65
2023/09/13 06:18:08;;;;;;;933.75;839.95;;;;;;;;;;5030329;28;20460;-64
2023/09/13 06:20:35;;;;;;;927.00;833.83;;;;;;;;;;5051251;28;20135;-65
2023/09/13 06:23:02;;;;;;;955.97;862.28;;;;;;;;;;5048054;28;20044;-64
2023/09/13 06:25:29;;;;;;;971.13;876.67;;;;;;;;;;5046455;28;20497;-65
2023/09/13 06:27:55;;;;;;;980.20;886.25;;;;;;;;;;5032055;28;20053;-64
2023/09/13 06:30:22;;;;;;;1007.63;914.83;;;;;;;;;;5029577;28;20041;-65
2023/09/13 06:32:49;;;;;;;1041.90;942.83;;;;;;;;;;5048587;28;20498;-66
2023/09/13 06:35:35;;;;;;;1046.35;950.13;;;;;;;;;;5048942;28;20041;-64
2023/09/13 06:38:02;;;;;;;1057.88;960.75;;;;;;;;;;5041982;28;20049;-65
2023/09/13 06:40:29;;;;;;;1076.80;980.13;;;;;;;;;;5040261;28;20037;-65
2023/09/13 06:43:01;;;;;;;1082.45;984.72;;;;;;;;;;5048278;28;20041;-65
2023/09/13 06:45:29;;;;;;;1095.05;996.58;;;;;;;;;;5050616;28;20080;-65
2023/09/13 06:47:57;;;;;;;1103.03;999.05;;;;;;;;;;5053226;28;20064;-66
2023/09/13 06:50:25;;;;;;;1108.03;999.90;;;;;;;;;;5053504;28;20044;-65
2023/09/13 06:53:12;;;;;;;1117.70;999.90;;;;;;;;;;5052136;28;20049;-65
2023/09/13 06:55:41;;;;;;;1131.07;999.90;;;;;;;;;;5049771;28;20130;-66
2023/09/13 06:58:13;;;;;;;1132.50;999.90;;;;;;;;;;5035107;28;20052;-66
2023/09/13 07:00:43;;;;;;;1132.32;999.90;;;;;;;;;;5049559;28;20048;-64
2023/09/13 07:03:29;;;;;;;1133.78;999.90;;;;;;;;;;5047463;28;20656;-67
2023/09/13 07:06:01;;;;;;;1156.47;999.90;;;;;;;;;;5046417;28;20124;-65
2023/09/13 07:08:28;;;;;;;1147.68;999.90;;;;;;;;;;5053570;28;20037;-69
2023/09/13 07:10:54;;;;;;;1145.50;999.90;;;;;;;;;;5052424;28;20037;-68
2023/09/13 07:13:21;;;;;;;1156.63;999.90;;;;;;;;;;5049822;28;20414;-65
2023/09/13 07:15:48;;;;;;;1144.97;999.90;;;;;;;;;;5049586;28;20037;-65
2023/09/13 07:18:14;;;;;;;1145.13;999.90;;;;;;;;;;5034603;28;20124;-65
2023/09/13 07:20:41;;;;;;;1146.03;999.90;;;;;;;;;;5052786;28;20077;-64
2023/09/13 07:23:09;;;;;;;1143.65;999.90;;;;;;;;;;5035156;28;20048;-66
2023/09/13 07:25:35;;;;;;;1141.00;999.90;;;;;;;;;;5031373;28;20037;-66
2023/09/13 07:28:02;;;;;;;1130.50;999.90;;;;;;;;;;5051549;28;20493;-64
2023/09/13 07:30:29;;;;;;;1135.55;999.90;;;;;;;;;;5031726;28;20510;-66
2023/09/13 07:32:55;;;;;;;1138.72;999.90;;;;;;;;;;5046855;28;20044;-64
2023/09/13 07:35:23;;;;;;;1128.35;999.90;;;;;;;;;;5052109;28;20052;-65
2023/09/13 07:37:50;;;;;;;1111.22;999.90;;;;;;;;;;5034670;28;20052;-66
2023/09/13 07:40:17;;;;;;;1095.82;997.80;;;;;;;;;;5030535;28;20041;-64
2023/09/13 07:42:43;;;;;;;1105.53;998.03;;;;;;;;;;5015386;28;20044;-63
2023/09/13 07:45:10;;;;;;;1115.53;994.85;;;;;;;;;;5049861;28;20050;-65
2023/09/13 07:47:37;;;;;;;1104.63;996.58;;;;;;;;;;5053275;28;20434;-65
2023/09/13 07:50:04;;;;;;;1081.25;986.10;;;;;;;;;;5027912;28;20052;-65
2023/09/13 07:52:30;;;;;;;1091.10;990.90;;;;;;;;;;5049188;28;20381;-65
2023/09/13 07:55:17;;;;;;;1085.50;985.30;;;;;;;;;;5030630;28;20383;-65
2023/09/13 07:57:44;;;;;;;1086.65;989.88;;;;;;;;;;5030497;28;20390;-65
2023/09/13 08:00:11;;;;;;;1088.40;992.08;;;;;;;;;;5051815;28;20441;-64
2023/09/13 08:02:38;;;;;;;1073.07;977.42;;;;;;;;;;5050066;28;20063;-64
2023/09/13 08:05:05;;;;;;;1078.82;983.17;;;;;;;;;;5049799;28;20041;-66
2023/09/13 08:07:32;;;;;;;1075.90;979.50;;;;;;;;;;5049000;28;20108;-64
2023/09/13 08:09:59;;;;;;;1079.93;982.88;;;;;;;;;;5051329;28;20071;-64
2023/09/13 08:12:25;;;;;;;1074.85;979.40;;;;;;;;;;5037585;28;20041;-64
2023/09/13 08:14:52;;;;;;;1098.10;993.03;;;;;;;;;;5050145;28;20053;-67
2023/09/13 08:17:19;;;;;;;1077.82;978.47;;;;;;;;;;5054572;28;20060;-65
2023/09/13 08:19:46;;;;;;;1087.72;989.25;;;;;;;;;;5055420;28;20048;-65
2023/09/13 08:22:16;;;;;;;1074.43;979.45;;;;;;;;;;5040108;28;20043;-65
2023/09/13 08:25:03;;;;;;;1078.68;981.72;;;;;;;;;;5033761;28;20473;-63
2023/09/13 08:27:30;;;;;;;1085.93;990.15;;;;;;;;;;5040396;28;20048;-63
2023/09/13 08:29:57;;;;;;;1081.20;983.25;;;;;;;;;;5056173;28;20605;-64
2023/09/13 08:32:23;;;;;;;1083.38;988.28;;;;;;;;;;5052975;28;20037;-64
2023/09/13 08:34:50;;;;;;;1082.75;987.80;;;;;;;;;;5055274;28;20041;-65
2023/09/13 08:37:17;;;;;;;1096.65;998.58;;;;;;;;;;5054453;28;20482;-66
2023/09/13 08:39:44;;;;;;;1095.30;997.40;;;;;;;;;;5052954;28;20052;-63
2023/09/13 08:42:10;;;;;;;1090.55;994.35;;;;;;;;;;5052334;28;20056;-67
2023/09/13 08:44:39;;;;;;;1096.00;997.67;;;;;;;;;;5056458;28;20048;-66
2023/09/13 08:47:09;;;;;;;1097.45;997.85;;;;;;;;;;5055714;28;20049;-64
2023/09/13 08:49:36;;;;;;;1097.32;998.65;;;;;;;;;;5029697;28;20038;-65
2023/09/13 08:52:03;;;;;;;1097.50;997.50;;;;;;;;;;5049220;28;20045;-65
2023/09/13 08:54:31;;;;;;;1101.20;999.90;;;;;;;;;;5050793;28;20045;-64
2023/09/13 08:57:17;;;;;;;1103.82;999.90;;;;;;;;;;5044086;28;20053;-64
2023/09/13 08:59:44;;;;;;;1102.93;999.80;;;;;;;;;;5046435;28;20048;-65
2023/09/13 09:02:17;;;;;;;1110.47;999.90;;;;;;;;;;5054538;28;20068;-64
2023/09/13 09:04:44;;;;;;;1106.15;999.90;;;;;;;;;;5052380;28;20479;-64
2023/09/13 09:07:11;;;;;;;1120.07;999.90;;;;;;;;;;5035297;28;20470;-64
2023/09/13 09:09:38;;;;;;;1111.65;999.90;;;;;;;;;;5053686;28;20041;-63
2023/09/13 09:12:06;;;;;;;1123.78;999.90;;;;;;;;;;5054113;28;20053;-64
2023/09/13 09:14:34;;;;;;;1111.43;999.90;;;;;;;;;;5056173;28;20057;-63
2023/09/13 09:17:02;;;;;;;1115.95;999.90;;;;;;;;;;5034335;28;20045;-64
2023/09/13 09:19:29;;;;;;;1177.82;999.90;;;;;;;;;;5030861;28;20044;-64
2023/09/13 09:22:00;;;;;;;1116.78;999.90;;;;;;;;;;5052593;28;20047;-65
2023/09/13 09:24:26;;;;;;;1123.72;999.90;;;;;;;;;;5049394;28;20141;-63
2023/09/13 09:26:56;;;;;;;1135.18;999.90;;;;;;;;;;5051607;28;20131;-65
2023/09/13 09:29:32;;;;;;;1126.32;999.90;;;;;;;;;;5052008;28;20083;-64
2023/09/13 09:31:59;;;;;;;1118.75;999.90;;;;;;;;;;5048499;28;20045;-65
2023/09/13 09:34:30;;;;;;;1120.22;999.90;;;;;;;;;;5047123;28;20037;-67
2023/09/13 09:37:06;;;;;;;1127.03;999.90;;;;;;;;;;5047406;28;20033;-73
2023/09/13 09:39:42;;;;;;;1130.68;999.90;;;;;;;;;;5028854;28;20068;-65
2023/09/13 09:42:15;;;;;;;1125.38;999.90;;;;;;;;;;5047717;28;20052;-67
2023/09/13 09:44:42;;;;;;;1128.55;999.90;;;;;;;;;;5033147;28;20095;-64
2023/09/13 09:47:12;;;;;;;1137.30;999.90;;;;;;;;;;5033497;28;20045;-64
2023/09/13 09:49:39;;;;;;;1122.03;999.90;;;;;;;;;;5048390;28;20537;-79
2023/09/13 09:52:07;;;;;;;1131.05;999.90;;;;;;;;;;5047730;28;20428;-69
2023/09/13 09:54:36;;;;;;;1136.97;999.90;;;;;;;;;;5047486;28;20049;-63
2023/09/13 09:57:03;;;;;;;1127.43;999.90;;;;;;;;;;5048473;28;20389;-63
2023/09/13 09:59:29;;;;;;;1132.63;999.90;;;;;;;;;;5051218;28;20045;-64
2023/09/13 10:01:57;;;;;;;1133.18;999.90;;;;;;;;;;5047381;28;20045;-63
2023/09/13 10:04:23;;;;;;;1142.10;999.90;;;;;;;;;;5046810;28;20041;-64
2023/09/13 10:07:03;;;;;;;1130.53;999.90;;;;;;;;;;5044215;28;20048;-64
2023/09/13 10:09:41;;;;;;;1121.60;999.90;;;;;;;;;;5045463;28;20064;-64
2023/09/13 10:12:09;;;;;;;1133.75;999.90;;;;;;;;;;5048334;28;20068;-66
2023/09/13 10:14:37;;;;;;;1129.40;999.90;;;;;;;;;;5052326;28;20037;-63
2023/09/13 10:17:04;;;;;;;1136.78;999.90;;;;;;;;;;5050030;28;20045;-63
2023/09/13 10:19:32;;;;;;;1137.57;999.90;;;;;;;;;;5048645;28;20052;-64
2023/09/13 10:21:59;;;;;;;1139.38;999.90;;;;;;;;;;5051630;28;20073;-63
2023/09/13 10:24:33;;;;;;;1137.28;999.90;;;;;;;;;;5042240;28;20056;-63
2023/09/13 10:27:02;;;;;;;1140.40;999.90;;;;;;;;;;5033939;28;20402;-62
2023/09/13 10:29:29;;;;;;;1143.82;999.90;;;;;;;;;;5052166;28;20037;-63
2023/09/13 10:31:59;;;;;;;1138.20;999.90;;;;;;;;;;5051084;28;20037;-64
2023/09/13 10:34:26;;;;;;;1143.18;999.90;;;;;;;;;;5035647;28;20044;-63
2023/09/13 10:37:03;;;;;;;1146.57;999.90;;;;;;;;;;5051124;28;20071;-63
2023/09/13 10:39:32;;;;;;;1151.20;999.90;;;;;;;;;;5030638;28;20063;-63
2023/09/13 10:42:02;;;;;;;1138.13;999.90;;;;;;;;;;5050849;28;20057;-62
2023/09/13 10:44:29;;;;;;;1145.88;999.90;;;;;;;;;;5054652;28;20045;-63
2023/09/13 10:46:56;;;;;;;1155.03;999.90;;;;;;;;;;5035237;28;20045;-64
2023/09/13 10:49:26;;;;;;;1166.97;999.90;;;;;;;;;;5046945;28;20037;-63
2023/09/13 10:51:55;;;;;;;1146.35;999.90;;;;;;;;;;5049483;28;20479;-65
2023/09/13 10:54:22;;;;;;;1152.13;999.90;;;;;;;;;;5034885;28;20048;-65
2023/09/13 10:56:49;;;;;;;1145.25;999.90;;;;;;;;;;5052140;28;20044;-66
2023/09/13 10:59:18;;;;;;;1148.50;999.90;;;;;;;;;;5051333;28;20079;-63
2023/09/13 11:01:47;;;;;;;1143.78;999.90;;;;;;;;;;5046595;28;20052;-64
2023/09/13 11:04:19;;;;;;;1149.45;999.90;;;;;;;;;;5031710;28;20053;-64
2023/09/13 11:06:46;;;;;;;1146.70;999.90;;;;;;;;;;5051089;28;20047;-64
2023/09/13 11:09:13;;;;;;;1141.05;999.90;;;;;;;;;;5032769;28;20090;-65
2023/09/13 11:11:47;;;;;;;1159.38;999.90;;;;;;;;;;5036203;28;20383;-63
2023/09/13 11:14:20;;;;;;;1144.22;999.90;;;;;;;;;;5033499;28;20049;-63
2023/09/13 11:16:46;;;;;;;1153.07;999.90;;;;;;;;;;5050133;28;20044;-64
2023/09/13 11:19:16;;;;;;;1149.38;999.90;;;;;;;;;;5049647;28;20035;-61
2023/09/13 11:21:47;;;;;;;1146.07;999.90;;;;;;;;;;5045686;28;20130;-70
2023/09/13 11:24:14;;;;;;;1144.25;999.90;;;;;;;;;;5047262;28;20040;-63
2023/09/13 11:26:57;;;;;;;;;;;;;;;;;;5027651;28;20045;-64
2023/09/13 11:29:24;;;;;;;1148.32;999.90;;;;;;;;;;5051217;28;19921;-63
2023/09/13 11:32:03;;;;;;;1161.68;999.90;;;;;;;;;;5048640;28;20056;-63
2023/09/13 11:34:32;;;;;;;1159.00;999.90;;;;;;;;;;5050283;28;20120;-63
2023/09/13 11:37:00;;;;;;;1161.88;999.90;;;;;;;;;;5048853;28;20486;-63
2023/09/13 11:39:27;;;;;;;1144.32;999.90;;;;;;;;;;5040730;28;20041;-63
2023/09/13 11:41:55;;;;;;;1162.22;999.90;;;;;;;;;;5051553;28;20053;-63
2023/09/13 11:44:22;;;;;;;1158.25;999.90;;;;;;;;;;5052739;28;20048;-63
2023/09/13 11:46:59;;;;;;;1147.15;999.90;;;;;;;;;;5047180;28;20042;-64
2023/09/13 11:49:26;;;;;;;1143.13;999.90;;;;;;;;;;5040015;28;20479;-63
2023/09/13 11:52:03;;;;;;;1154.20;999.90;;;;;;;;;;5048864;28;20128;-63
2023/09/13 11:54:59;;;;;;;1146.10;999.90;;;;;;;;;;5048436;28;20064;-63
2023/09/13 11:57:51;;;;;;;1149.47;999.90;;;;;;;;;;5046492;28;20048;-63
2023/09/13 12:00:22;;;;;;;1152.75;999.90;;;;;;;;;;5046855;28;20034;-63
2023/09/13 12:02:50;;;;;;;1178.95;999.90;;;;;;;;;;5046797;28;20498;-63
2023/09/13 12:05:20;;;;;;;1162.78;999.90;;;;;;;;;;5052576;28;20047;-63
2023/09/13 12:08:01;;;;;;;1160.60;999.90;;;;;;;;;;5046831;28;20103;-64
2023/09/13 12:10:31;;;;;;;1159.60;999.90;;;;;;;;;;5048478;28;20118;-63
2023/09/13 12:13:02;;;;;;;1162.50;999.90;;;;;;;;;;5044889;28;20124;-63
2023/09/13 12:15:58;;;;;;;1157.18;999.90;;;;;;;;;;5051098;28;20041;-64
2023/09/13 12:18:28;;;;;;;1156.78;999.90;;;;;;;;;;5048444;28;20467;-66
2023/09/13 12:20:56;;;;;;;1173.88;999.90;;;;;;;;;;5041720;28;20053;-64
2023/09/13 12:23:23;;;;;;;1159.57;999.90;;;;;;;;;;5052156;28;20049;-65
2023/09/13 12:25:49;;;;;;;1169.03;999.90;;;;;;;;;;5045855;28;20052;-65
2023/09/13 12:28:26;;;;;;;1176.47;999.90;;;;;;;;;;5045174;28;20037;-64
2023/09/13 12:30:53;;;;;;;1166.72;999.90;;;;;;;;;;5049099;28;20126;-65
2023/09/13 12:33:21;;;;;;;1167.47;999.90;;;;;;;;;;5047446;28;20076;-64
2023/09/13 12:35:48;;;;;;;1159.90;999.90;;;;;;;;;;5048130;28;20449;-65
2023/09/13 12:38:16;;;;;;;1161.03;999.90;;;;;;;;;;5049286;28;20121;-64
2023/09/13 12:40:47;;;;;;;1168.65;999.90;;;;;;;;;;5048347;28;20517;-64
2023/09/13 12:43:13;;;;;;;1176.97;999.90;;;;;;;;;;5046774;28;20033;-66
2023/09/13 12:45:41;;;;;;;1162.80;999.90;;;;;;;;;;5047429;28;20064;-64
2023/09/13 12:48:07;;;;;;;1168.18;999.90;;;;;;;;;;5048119;28;20041;-65
2023/09/13 12:50:34;;;;;;;1163.55;999.90;;;;;;;;;;5051701;28;20063;-65
2023/09/13 12:53:03;;;;;;;1176.60;999.90;;;;;;;;;;5047848;28;20128;-65
2023/09/13 12:55:30;;;;;;;1170.55;999.90;;;;;;;;;;5033073;28;20053;-65
2023/09/13 12:58:06;;;;;;;1173.05;999.90;;;;;;;;;;5047746;28;20049;-65
2023/09/13 13:00:49;;;;;;;1163.15;999.90;;;;;;;;;;5043586;28;20041;-65
2023/09/13 13:03:16;;;;;;;1169.95;999.90;;;;;;;;;;5042384;28;20045;-65
2023/09/13 13:05:43;;;;;;;1169.25;999.90;;;;;;;;;;5048442;28;20119;-65
2023/09/13 13:08:10;;;;;;;1173.38;999.90;;;;;;;;;;5048531;28;20056;-65
2023/09/13 13:10:56;;;;;;;1166.28;999.90;;;;;;;;;;5032663;28;20041;-66
2023/09/13 13:13:30;;;;;;;1165.68;999.90;;;;;;;;;;5042758;28;20083;-64
2023/09/13 13:15:56;;;;;;;1167.57;999.90;;;;;;;;;;5046949;28;20451;-64
2023/09/13 13:18:23;;;;;;;1168.90;999.90;;;;;;;;;;5048359;28;20072;-66
2023/09/13 13:20:50;;;;;;;1169.68;999.90;;;;;;;;;;5049667;28;20040;-66
2023/09/13 13:23:20;;;;;;;1163.72;999.90;;;;;;;;;;5047714;28;20048;-65
2023/09/13 13:25:46;;;;;;;1169.75;999.90;;;;;;;;;;5032901;28;20474;-66
2023/09/13 13:28:14;;;;;;;1177.60;999.90;;;;;;;;;;5047393;28;20037;-64
2023/09/13 13:30:41;;;;;;;1171.15;999.90;;;;;;;;;;5046377;28;20163;-66
2023/09/13 13:33:07;;;;;;;1154.50;999.90;;;;;;;;;;5027681;28;20041;-65
2023/09/13 13:35:37;;;;;;;1159.60;999.90;;;;;;;;;;5049907;28;20040;-65
2023/09/13 13:38:03;;;;;;;1170.00;999.90;;;;;;;;;;5046464;28;20049;-66
2023/09/13 13:40:31;;;;;;;1169.00;999.90;;;;;;;;;;5045641;28;20045;-65
2023/09/13 13:42:58;;;;;;;1168.82;999.90;;;;;;;;;;5046204;28;20474;-64
2023/09/13 13:45:25;;;;;;;1154.75;999.90;;;;;;;;;;5046860;28;20033;-66
2023/09/13 13:47:51;;;;;;;1177.47;999.90;;;;;;;;;;5048232;28;20421;-66
2023/09/13 13:50:18;;;;;;;1158.38;999.90;;;;;;;;;;5048311;28;20059;-68
2023/09/13 13:52:45;;;;;;;1157.30;999.90;;;;;;;;;;5047058;28;20064;-67
2023/09/13 13:55:11;;;;;;;1158.78;999.90;;;;;;;;;;5048506;28;20051;-67
2023/09/13 13:57:38;;;;;;;1148.97;999.90;;;;;;;;;;5051111;28;20048;-66